sensor_id;sensor_type;location;lat;lon;timestamp;pressure;altitude;pressure_sealevel;temperature;humidity
2036;BME280;23642;42.658;23.350;2023-11-19T00:06:44;49619.88;;;-146.31;89.82
2036;BME280;23642;42.658;23.350;2023-11-19T00:12:47;49648.75;;;-146.31;89.02
2036;BME280;23642;42.658;23.350;2023-11-19T00:15:57;49636.38;;;-146.31;89.34
2036;BME280;23642;42.658;23.350;2023-11-19T00:18:41;49626.06;;;-146.31;88.70
2036;BME280;23642;42.658;23.350;2023-11-19T00:21:28;49628.13;;;-146.31;88.60
2036;BME280;23642;42.658;23.350;2023-11-19T00:24:22;49642.56;;;-146.31;88.39
2036;BME280;23642;42.658;23.350;2023-11-19T00:27:10;49667.31;;;-146.31;88.58
2036;BME280;23642;42.658;23.350;2023-11-19T00:30:27;49652.88;;;-146.31;88.77
2036;BME280;23642;42.658;23.350;2023-11-19T00:33:13;49640.50;;;-146.31;88.67
2036;BME280;23642;42.658;23.350;2023-11-19T00:36:36;49661.13;;;-146.31;88.79
2036;BME280;23642;42.658;23.350;2023-11-19T00:39:53;49669.38;;;-146.31;88.89
2036;BME280;23642;42.658;23.350;2023-11-19T00:42:41;49661.13;;;-146.31;88.77
2036;BME280;23642;42.658;23.350;2023-11-19T00:45:48;49661.13;;;-146.31;88.61
2036;BME280;23642;42.658;23.350;2023-11-19T00:49:00;49667.31;;;-146.31;89.05
2036;BME280;23642;42.658;23.350;2023-11-19T00:58:52;49661.13;;;-146.31;89.03
2036;BME280;23642;42.658;23.350;2023-11-19T01:01:42;49659.06;;;-146.31;89.55
2036;BME280;23642;42.658;23.350;2023-11-19T01:07:41;49644.63;;;-146.31;89.59
2036;BME280;23642;42.658;23.350;2023-11-19T01:10:29;49642.56;;;-146.31;89.37
2036;BME280;23642;42.658;23.350;2023-11-19T01:16:03;49669.38;;;-146.31;89.19
2036;BME280;23642;42.658;23.350;2023-11-19T01:23:42;49661.13;;;-146.31;88.85
2036;BME280;23642;42.658;23.350;2023-11-19T01:29:40;49646.69;;;-146.31;89.66
2036;BME280;23642;42.658;23.350;2023-11-19T01:32:30;49648.75;;;-146.31;89.79
2036;BME280;23642;42.658;23.350;2023-11-19T01:35:18;49646.69;;;-146.31;89.20
2036;BME280;23642;42.658;23.350;2023-11-19T01:38:08;49665.25;;;-146.31;88.82
2036;BME280;23642;42.658;23.350;2023-11-19T01:44:26;49694.13;;;-146.31;88.74
2036;BME280;23642;42.658;23.350;2023-11-19T01:47:30;49702.34;;;-146.31;87.86
2036;BME280;23642;42.658;23.350;2023-11-19T01:50:36;49685.88;;;-146.31;87.88
2036;BME280;23642;42.658;23.350;2023-11-19T01:53:20;49718.84;;;-146.31;87.71
2036;BME280;23642;42.658;23.350;2023-11-19T01:56:04;49725.03;;;-146.31;87.76
2036;BME280;23642;42.658;23.350;2023-11-19T01:59:13;49692.06;;;-146.31;87.92
2036;BME280;23642;42.658;23.350;2023-11-19T02:02:38;49753.91;;;-146.31;87.75
2036;BME280;23642;42.658;23.350;2023-11-19T02:05:50;49743.59;;;-146.31;87.02
2036;BME280;23642;42.658;23.350;2023-11-19T02:08:45;49739.47;;;-146.31;87.44
2036;BME280;23642;42.658;23.350;2023-11-19T02:11:55;49749.78;;;-146.31;86.90
2036;BME280;23642;42.658;23.350;2023-11-19T02:46:07;49747.72;;;-146.31;87.46
2036;BME280;23642;42.658;23.350;2023-11-19T02:54:03;49755.97;;;-146.31;87.84
2036;BME280;23642;42.658;23.350;2023-11-19T03:09:59;49768.34;;;-146.31;88.51
2036;BME280;23642;42.658;23.350;2023-11-19T03:16:57;49784.84;;;-146.31;88.43
2036;BME280;23642;42.658;23.350;2023-11-19T03:24:20;49772.47;;;-146.31;89.18
2036;BME280;23642;42.658;23.350;2023-11-19T03:27:02;49733.28;;;-146.31;89.17
2036;BME280;23642;42.658;23.350;2023-11-19T03:30:14;49755.97;;;-146.31;90.18
2036;BME280;23642;42.658;23.350;2023-11-19T03:32:56;49739.47;;;-146.31;89.59
2036;BME280;23642;42.658;23.350;2023-11-19T03:41:55;49745.66;;;-146.31;89.69
2036;BME280;23642;42.658;23.350;2023-11-19T03:49:41;49788.97;;;-146.31;88.84
2036;BME280;23642;42.658;23.350;2023-11-19T03:56:08;49766.28;;;-146.31;88.74
2036;BME280;23642;42.658;23.350;2023-11-19T03:59:05;49760.09;;;-146.31;89.65
2036;BME280;23642;42.658;23.350;2023-11-19T04:03:35;49766.28;;;-146.31;89.59
2036;BME280;23642;42.658;23.350;2023-11-19T04:09:31;49747.72;;;-146.31;89.54
2036;BME280;23642;42.658;23.350;2023-11-19T04:21:49;49745.66;;;-146.31;89.50
2036;BME280;23642;42.658;23.350;2023-11-19T04:46:52;49797.22;;;-146.31;86.91
2036;BME280;23642;42.658;23.350;2023-11-19T04:49:43;49797.22;;;-146.31;86.78
2036;BME280;23642;42.658;23.350;2023-11-19T04:52:32;49768.34;;;-146.31;87.31
2036;BME280;23642;42.658;23.350;2023-11-19T04:55:15;49834.31;;;-146.31;86.51
2036;BME280;23642;42.658;23.350;2023-11-19T04:57:47;49811.66;;;-146.31;86.67
2036;BME280;23642;42.658;23.350;2023-11-19T05:03:54;49840.50;;;-146.31;86.31
2036;BME280;23642;42.658;23.350;2023-11-19T05:09:13;49828.13;;;-146.31;86.87
2036;BME280;23642;42.658;23.350;2023-11-19T05:10:14;49859.06;;;-146.31;86.74
2036;BME280;23642;42.658;23.350;2023-11-19T05:13:15;49863.19;;;-146.31;86.23
2036;BME280;23642;42.658;23.350;2023-11-19T05:15:52;49842.56;;;-146.31;85.92
2036;BME280;23642;42.658;23.350;2023-11-19T05:21:52;49838.44;;;-146.31;85.67
2036;BME280;23642;42.658;23.350;2023-11-19T05:24:32;49828.13;;;-146.31;86.17
2036;BME280;23642;42.658;23.350;2023-11-19T05:27:31;49842.56;;;-146.31;85.88
2036;BME280;23642;42.658;23.350;2023-11-19T05:30:01;49854.94;;;-146.31;85.90
2036;BME280;23642;42.658;23.350;2023-11-19T05:32:48;49854.94;;;-146.31;86.22
2036;BME280;23642;42.658;23.350;2023-11-19T05:35:55;49834.31;;;-146.31;85.91
2036;BME280;23642;42.658;23.350;2023-11-19T05:42:20;49840.50;;;-146.31;86.44
2036;BME280;23642;42.658;23.350;2023-11-19T05:48:29;49850.81;;;-146.31;86.34
2036;BME280;23642;42.658;23.350;2023-11-19T05:51:29;49838.44;;;-146.31;86.22
2036;BME280;23642;42.658;23.350;2023-11-19T05:54:16;49859.06;;;-146.31;86.21
2036;BME280;23642;42.658;23.350;2023-11-19T05:57:26;49857.00;;;-146.31;86.61
2036;BME280;23642;42.658;23.350;2023-11-19T06:17:16;49883.81;;;-146.31;86.54
2036;BME280;23642;42.658;23.350;2023-11-19T06:20:17;49838.44;;;-146.31;86.19
2036;BME280;23642;42.658;23.350;2023-11-19T06:22:46;49885.88;;;-146.31;85.79
2036;BME280;23642;42.658;23.350;2023-11-19T06:25:15;49885.88;;;-146.31;86.37
2036;BME280;23642;42.658;23.350;2023-11-19T06:28:07;49898.25;;;-146.31;86.46
2036;BME280;23642;42.658;23.350;2023-11-19T06:34:33;49906.50;;;-146.31;85.62
2036;BME280;23642;42.658;23.350;2023-11-19T06:40:37;49898.25;;;-146.31;85.97
2036;BME280;23642;42.658;23.350;2023-11-19T06:43:42;49933.31;;;-146.31;85.24
2036;BME280;23642;42.658;23.350;2023-11-19T06:46:50;49941.56;;;-146.31;85.12
2036;BME280;23642;42.658;23.350;2023-11-19T06:49:43;49941.56;;;-146.31;85.26
2036;BME280;23642;42.658;23.350;2023-11-19T06:52:11;49962.19;;;-146.31;85.15
2036;BME280;23642;42.658;23.350;2023-11-19T06:55:44;49972.47;;;-146.31;85.08
2036;BME280;23642;42.658;23.350;2023-11-19T06:58:57;49956.00;;;-146.31;84.44
2036;BME280;23642;42.658;23.350;2023-11-19T07:01:36;49999.28;;;-146.31;84.26
2036;BME280;23642;42.658;23.350;2023-11-19T07:04:49;49995.16;;;-146.31;83.61
2036;BME280;23642;42.658;23.350;2023-11-19T07:07:19;50011.66;;;-146.31;84.52
2036;BME280;23642;42.658;23.350;2023-11-19T07:09:50;50009.59;;;-146.31;83.84
2036;BME280;23642;42.658;23.350;2023-11-19T07:12:56;49986.91;;;-146.31;83.75
2036;BME280;23642;42.658;23.350;2023-11-19T07:15:26;49999.28;;;-146.31;83.99
2036;BME280;23642;42.658;23.350;2023-11-19T07:19:34;49997.22;;;-146.31;83.10
2036;BME280;23642;42.658;23.350;2023-11-19T07:22:08;49999.28;;;-146.31;83.12
2036;BME280;23642;42.658;23.350;2023-11-19T07:25:15;50001.34;;;-146.31;83.11
2036;BME280;23642;42.658;23.350;2023-11-19T07:28:21;50036.41;;;-146.31;83.38
2036;BME280;23642;42.658;23.350;2023-11-19T07:31:13;50036.41;;;-146.31;83.07
2036;BME280;23642;42.658;23.350;2023-11-19T07:40:47;50034.34;;;-146.31;82.49
2036;BME280;23642;42.658;23.350;2023-11-19T07:43:16;50094.16;;;-146.31;82.54
2036;BME280;23642;42.658;23.350;2023-11-19T07:46:21;50063.22;;;-146.31;82.40
2036;BME280;23642;42.658;23.350;2023-11-19T07:49:28;50087.97;;;-146.31;81.29
2036;BME280;23642;42.658;23.350;2023-11-19T08:01:55;50094.16;;;-146.31;81.52
2036;BME280;23642;42.658;23.350;2023-11-19T08:08:05;50120.97;;;-146.31;81.68
2036;BME280;23642;42.658;23.350;2023-11-19T08:14:23;50090.03;;;-146.31;81.33
2036;BME280;23642;42.658;23.350;2023-11-19T08:20:36;50114.78;;;-146.31;81.92
2036;BME280;23642;42.658;23.350;2023-11-19T08:23:10;50106.53;;;-146.31;81.43
2036;BME280;23642;42.658;23.350;2023-11-19T08:25:53;50127.16;;;-146.31;81.41
2036;BME280;23642;42.658;23.350;2023-11-19T08:35:08;50125.09;;;-146.31;82.27
2036;BME280;23642;42.658;23.350;2023-11-19T08:38:18;50116.84;;;-146.31;82.57
2036;BME280;23642;42.658;23.350;2023-11-19T08:41:28;50172.50;;;-146.31;81.20
2036;BME280;23642;42.658;23.350;2023-11-19T08:44:18;50160.13;;;-146.31;80.49
2036;BME280;23642;42.658;23.350;2023-11-19T08:46:59;50180.75;;;-146.31;80.88
2036;BME280;23642;42.658;23.350;2023-11-19T08:49:38;50151.91;;;-146.31;80.39
2036;BME280;23642;42.658;23.350;2023-11-19T08:52:26;50168.38;;;-146.31;79.84
2036;BME280;23642;42.658;23.350;2023-11-19T08:55:16;50217.88;;;-146.31;79.70
2036;BME280;23642;42.658;23.350;2023-11-19T08:57:53;50226.13;;;-146.31;80.33
2036;BME280;23642;42.658;23.350;2023-11-19T09:00:23;50279.75;;;-146.31;79.45
2036;BME280;23642;42.658;23.350;2023-11-19T09:03:10;50248.81;;;-146.31;78.29
2036;BME280;23642;42.658;23.350;2023-11-19T09:06:11;50290.06;;;-146.31;78.28
2036;BME280;23642;42.658;23.350;2023-11-19T09:09:22;50329.25;;;-146.31;77.10
2036;BME280;23642;42.658;23.350;2023-11-19T09:12:08;50403.50;;;-146.31;77.01
2036;BME280;23642;42.658;23.350;2023-11-19T09:14:53;50420.00;;;-146.31;76.50
2036;BME280;23642;42.658;23.350;2023-11-19T09:17:46;50331.31;;;-146.31;76.36
2036;BME280;23642;42.658;23.350;2023-11-19T09:20:56;50296.25;;;-146.31;76.10
2036;BME280;23642;42.658;23.350;2023-11-19T09:23:24;50281.81;;;-146.31;76.12
2036;BME280;23642;42.658;23.350;2023-11-19T09:26:53;50306.56;;;-146.31;75.73
2036;BME280;23642;42.658;23.350;2023-11-19T09:32:41;50312.75;;;-146.31;75.82
2036;BME280;23642;42.658;23.350;2023-11-19T09:35:30;50294.19;;;-146.31;75.49
2036;BME280;23642;42.658;23.350;2023-11-19T09:38:02;50285.94;;;-146.31;76.40
2036;BME280;23642;42.658;23.350;2023-11-19T09:40:44;50327.19;;;-146.31;75.97
2036;BME280;23642;42.658;23.350;2023-11-19T09:43:31;50343.69;;;-146.31;76.53
2036;BME280;23642;42.658;23.350;2023-11-19T09:49:34;50285.94;;;-146.31;76.54
2036;BME280;23642;42.658;23.350;2023-11-19T09:52:40;50312.75;;;-146.31;76.45
2036;BME280;23642;42.658;23.350;2023-11-19T09:55:34;50341.63;;;-146.31;76.91
2036;BME280;23642;42.658;23.350;2023-11-19T09:58:46;50349.88;;;-146.31;76.47
2036;BME280;23642;42.658;23.350;2023-11-19T10:01:51;50316.88;;;-146.31;76.32
2036;BME280;23642;42.658;23.350;2023-11-19T10:10:42;50422.06;;;-146.31;76.53
2036;BME280;23642;42.658;23.350;2023-11-19T10:13:33;50358.13;;;-146.31;75.35
2036;BME280;23642;42.658;23.350;2023-11-19T10:16:37;50354.00;;;-146.31;74.80
2036;BME280;23642;42.658;23.350;2023-11-19T10:19:34;50374.63;;;-146.31;74.69
2036;BME280;23642;42.658;23.350;2023-11-19T10:25:29;50380.81;;;-146.31;74.42
2036;BME280;23642;42.658;23.350;2023-11-19T10:28:40;50341.63;;;-146.31;75.43
2036;BME280;23642;42.658;23.350;2023-11-19T10:31:51;50341.63;;;-146.31;75.86
2036;BME280;23642;42.658;23.350;2023-11-19T10:34:38;50292.13;;;-146.31;75.76
2036;BME280;23642;42.658;23.350;2023-11-19T10:54:37;50312.75;;;-146.31;74.92
2036;BME280;23642;42.658;23.350;2023-11-19T11:15:23;50358.13;;;-146.31;75.51
2036;BME280;23642;42.658;23.350;2023-11-19T11:21:57;50349.88;;;-146.31;74.72
2036;BME280;23642;42.658;23.350;2023-11-19T11:28:21;50368.44;;;-146.31;74.72
2036;BME280;23642;42.658;23.350;2023-11-19T11:31:45;50395.25;;;-146.31;74.35
2036;BME280;23642;42.658;23.350;2023-11-19T11:35:07;50376.69;;;-146.31;73.89
2036;BME280;23642;42.658;23.350;2023-11-19T11:38:10;50358.13;;;-146.31;74.00
2036;BME280;23642;42.658;23.350;2023-11-19T11:41:19;50378.75;;;-146.31;73.73
2036;BME280;23642;42.658;23.350;2023-11-19T11:44:35;50354.00;;;-146.31;74.38
2036;BME280;23642;42.658;23.350;2023-11-19T12:01:06;50370.50;;;-146.31;74.31
2036;BME280;23642;42.658;23.350;2023-11-19T12:08:15;50393.19;;;-146.31;73.97
2036;BME280;23642;42.658;23.350;2023-11-19T12:11:16;50393.19;;;-146.31;73.63
2036;BME280;23642;42.658;23.350;2023-11-19T12:16:36;50395.25;;;-146.31;73.00
2036;BME280;23642;42.658;23.350;2023-11-19T12:19:21;50341.63;;;-146.31;75.55
2036;BME280;23642;42.658;23.350;2023-11-19T12:22:24;50337.50;;;-146.31;74.71
2036;BME280;23642;42.658;23.350;2023-11-19T12:49:32;50403.50;;;-146.31;72.35
2036;BME280;23642;42.658;23.350;2023-11-19T12:59:39;50407.63;;;-146.31;74.83
2036;BME280;23642;42.658;23.350;2023-11-19T13:02:06;50403.50;;;-146.31;74.92
2036;BME280;23642;42.658;23.350;2023-11-19T13:07:51;50428.25;;;-146.31;74.17
2036;BME280;23642;42.658;23.350;2023-11-19T13:10:49;50424.13;;;-146.31;74.45
2036;BME280;23642;42.658;23.350;2023-11-19T13:14:22;50393.19;;;-146.31;74.05
2036;BME280;23642;42.658;23.350;2023-11-19T13:24:23;50436.50;;;-146.31;73.82
2036;BME280;23642;42.658;23.350;2023-11-19T13:27:45;50461.25;;;-146.31;73.55
2036;BME280;23642;42.658;23.350;2023-11-19T13:30:39;50465.38;;;-146.31;73.29
2036;BME280;23642;42.658;23.350;2023-11-19T13:33:53;50453.00;;;-146.31;72.47
2036;BME280;23642;42.658;23.350;2023-11-19T14:01:10;50494.25;;;-146.31;71.97
2036;BME280;23642;42.658;23.350;2023-11-19T14:27:54;50556.13;;;-146.31;72.10
2036;BME280;23642;42.658;23.350;2023-11-19T14:34:37;50504.56;;;-146.31;74.92
2036;BME280;23642;42.658;23.350;2023-11-19T14:37:28;50508.69;;;-146.31;75.61
2036;BME280;23642;42.658;23.350;2023-11-19T14:50:07;50490.13;;;-146.31;78.22
2036;BME280;23642;42.658;23.350;2023-11-19T15:13:49;50391.13;;;-146.31;81.36
2036;BME280;23642;42.658;23.350;2023-11-19T15:18:17;50434.44;;;-146.31;83.11
2036;BME280;23642;42.658;23.350;2023-11-19T15:27:27;50382.88;;;-146.31;83.06
2036;BME280;23642;42.658;23.350;2023-11-19T15:34:17;50397.31;;;-146.31;82.54
2036;BME280;23642;42.658;23.350;2023-11-19T15:40:53;50405.56;;;-146.31;83.46
2036;BME280;23642;42.658;23.350;2023-11-19T15:57:34;50337.50;;;-146.31;86.20
2036;BME280;23642;42.658;23.350;2023-11-19T16:04:20;50337.50;;;-146.31;86.19
2036;BME280;23642;42.658;23.350;2023-11-19T16:13:38;50333.38;;;-146.31;86.86
2036;BME280;23642;42.658;23.350;2023-11-19T17:04:24;50667.50;;;-146.31;70.33
2036;BME280;23642;42.658;23.350;2023-11-19T17:10:20;50661.31;;;-146.31;69.78
2036;BME280;23642;42.658;23.350;2023-11-19T17:16:55;50681.94;;;-146.31;71.10
2036;BME280;23642;42.658;23.350;2023-11-19T17:34:08;50690.19;;;-146.31;71.07
2036;BME280;23642;42.658;23.350;2023-11-19T17:37:25;50675.75;;;-146.31;70.36
2036;BME280;23642;42.658;23.350;2023-11-19T17:40:39;50714.94;;;-146.31;68.87
2036;BME280;23642;42.658;23.350;2023-11-19T18:07:50;50539.63;;;-146.31;79.43
2036;BME280;23642;42.658;23.350;2023-11-19T18:11:22;50527.25;;;-146.31;80.32
2036;BME280;23642;42.658;23.350;2023-11-19T18:17:24;50490.13;;;-146.31;81.34
2036;BME280;23642;42.658;23.350;2023-11-19T18:22:42;50570.56;;;-146.31;76.18
2036;BME280;23642;42.658;23.350;2023-11-19T18:28:31;50613.88;;;-146.31;75.08
2036;BME280;23642;42.658;23.350;2023-11-19T18:31:38;50646.88;;;-146.31;73.97
2036;BME280;23642;42.658;23.350;2023-11-19T18:34:19;50632.44;;;-146.31;73.07
2036;BME280;23642;42.658;23.350;2023-11-19T18:37:09;50642.75;;;-146.31;73.12
2036;BME280;23642;42.658;23.350;2023-11-19T18:40:49;50638.63;;;-146.31;73.82
2036;BME280;23642;42.658;23.350;2023-11-19T18:43:29;50615.94;;;-146.31;73.61
2036;BME280;23642;42.658;23.350;2023-11-19T18:46:13;50626.25;;;-146.31;73.92
2036;BME280;23642;42.658;23.350;2023-11-19T18:48:45;50644.81;;;-146.31;73.69
2036;BME280;23642;42.658;23.350;2023-11-19T18:54:42;50636.56;;;-146.31;74.17
2036;BME280;23642;42.658;23.350;2023-11-19T18:57:54;50650.97;;;-146.31;75.02
2036;BME280;23642;42.658;23.350;2023-11-19T19:01:10;50609.75;;;-146.31;76.22
2036;BME280;23642;42.658;23.350;2023-11-19T19:04:07;50663.38;;;-146.31;73.54
2036;BME280;23642;42.658;23.350;2023-11-19T19:07:07;50648.94;;;-146.31;74.55
2036;BME280;23642;42.658;23.350;2023-11-19T19:09:36;50671.63;;;-146.31;74.42
2036;BME280;23642;42.658;23.350;2023-11-19T19:22:23;50650.97;;;-146.31;75.36
2036;BME280;23642;42.658;23.350;2023-11-19T19:25:34;50646.88;;;-146.31;74.92
2036;BME280;23642;42.658;23.350;2023-11-19T20:00:03;50568.50;;;-146.31;77.32
2036;BME280;23642;42.658;23.350;2023-11-19T20:06:40;50585.00;;;-146.31;78.08
2036;BME280;23642;42.658;23.350;2023-11-19T20:33:54;50587.06;;;-146.31;80.05
2036;BME280;23642;42.658;23.350;2023-11-19T20:36:50;50541.69;;;-146.31;82.51
2036;BME280;23642;42.658;23.350;2023-11-19T20:47:34;50539.63;;;-146.31;84.14
2036;BME280;23642;42.658;23.350;2023-11-19T21:22:38;50469.50;;;-146.31;86.50
2036;BME280;23642;42.658;23.350;2023-11-19T21:28:55;50473.63;;;-146.31;88.25
2036;BME280;23642;42.658;23.350;2023-11-19T21:31:46;50502.50;;;-146.31;88.73
2036;BME280;23642;42.658;23.350;2023-11-19T21:34:17;50473.63;;;-146.31;89.85
2036;BME280;23642;42.658;23.350;2023-11-19T21:37:38;50444.75;;;-146.31;90.54
2036;BME280;23642;42.658;23.350;2023-11-19T21:40:12;50440.63;;;-146.31;91.14
2036;BME280;23642;42.658;23.350;2023-11-19T21:43:19;50428.25;;;-146.31;92.40
2036;BME280;23642;42.658;23.350;2023-11-19T21:45:51;50345.75;;;-146.31;93.59
2036;BME280;23642;42.658;23.350;2023-11-19T21:51:24;50331.31;;;-146.31;94.11
2036;BME280;23642;42.658;23.350;2023-11-19T21:53:53;50329.25;;;-146.31;93.67
2036;BME280;23642;42.658;23.350;2023-11-19T21:56:21;50329.25;;;-146.31;91.92
2036;BME280;23642;42.658;23.350;2023-11-19T21:58:53;50362.25;;;-146.31;92.01
2036;BME280;23642;42.658;23.350;2023-11-19T22:04:33;50347.81;;;-146.31;90.69
2036;BME280;23642;42.658;23.350;2023-11-19T22:07:17;50370.50;;;-146.31;92.04
2036;BME280;23642;42.658;23.350;2023-11-19T22:10:13;50325.13;;;-146.31;93.42
2036;BME280;23642;42.658;23.350;2023-11-19T22:12:56;50310.69;;;-146.31;93.89
2036;BME280;23642;42.658;23.350;2023-11-19T22:15:34;50341.63;;;-146.31;94.90
2036;BME280;23642;42.658;23.350;2023-11-19T22:18:17;50316.88;;;-146.31;95.08
2036;BME280;23642;42.658;23.350;2023-11-19T22:21:21;50259.13;;;-146.31;95.59
2036;BME280;23642;42.658;23.350;2023-11-19T22:27:34;50281.81;;;-146.31;94.17
2036;BME280;23642;42.658;23.350;2023-11-19T22:30:36;50269.44;;;-146.31;94.96
2036;BME280;23642;42.658;23.350;2023-11-19T22:33:34;50288.00;;;-146.31;95.43
2036;BME280;23642;42.658;23.350;2023-11-19T22:36:19;50298.31;;;-146.31;96.65
2036;BME280;23642;42.658;23.350;2023-11-19T22:39:07;50261.19;;;-146.31;97.24
2036;BME280;23642;42.658;23.350;2023-11-19T22:41:37;50213.75;;;-146.31;97.23
2036;BME280;23642;42.658;23.350;2023-11-19T22:44:45;50205.50;;;-146.31;96.19
2036;BME280;23642;42.658;23.350;2023-11-19T22:47:13;50250.88;;;-146.31;97.50
2036;BME280;23642;42.658;23.350;2023-11-19T22:49:40;50203.44;;;-146.31;97.66
2036;BME280;23642;42.658;23.350;2023-11-19T22:52:31;50219.94;;;-146.31;97.45
2036;BME280;23642;42.658;23.350;2023-11-19T22:55:21;50184.88;;;-146.31;98.66
2036;BME280;23642;42.658;23.350;2023-11-19T22:57:52;50153.97;;;-146.31;99.17
2036;BME280;23642;42.658;23.350;2023-11-19T23:00:41;50151.91;;;-146.31;99.66
2036;BME280;23642;42.658;23.350;2023-11-19T23:03:08;50139.53;;;-146.31;99.99
2036;BME280;23642;42.658;23.350;2023-11-19T23:05:36;50098.28;;;-146.31;100.00
2036;BME280;23642;42.658;23.350;2023-11-19T23:08:24;50085.91;;;-146.31;100.00
2036;BME280;23642;42.658;23.350;2023-11-19T23:11:11;50079.72;;;-146.31;100.00
2036;BME280;23642;42.658;23.350;2023-11-19T23:14:02;50052.91;;;-146.31;98.51
2036;BME280;23642;42.658;23.350;2023-11-19T23:16:30;50052.91;;;-146.31;97.91
2036;BME280;23642;42.658;23.350;2023-11-19T23:18:58;50075.59;;;-146.31;95.36
2036;BME280;23642;42.658;23.350;2023-11-19T23:21:25;50094.16;;;-146.31;95.09
2036;BME280;23642;42.658;23.350;2023-11-19T23:24:11;50127.16;;;-146.31;93.20
2036;BME280;23642;42.658;23.350;2023-11-19T23:26:42;50110.66;;;-146.31;92.07
2036;BME280;23642;42.658;23.350;2023-11-19T23:29:11;50149.84;;;-146.31;91.69
2036;BME280;23642;42.658;23.350;2023-11-19T23:31:58;50135.41;;;-146.31;91.44
2036;BME280;23642;42.658;23.350;2023-11-19T23:34:50;50184.88;;;-146.31;89.72
2036;BME280;23642;42.658;23.350;2023-11-19T23:37:31;50164.25;;;-146.31;89.53
2036;BME280;23642;42.658;23.350;2023-11-19T23:40:08;50199.31;;;-146.31;90.21
2036;BME280;23642;42.658;23.350;2023-11-19T23:42:52;50201.38;;;-146.31;91.06
2036;BME280;23642;42.658;23.350;2023-11-19T23:45:26;50186.94;;;-146.31;90.51
2036;BME280;23642;42.658;23.350;2023-11-19T23:48:10;50224.06;;;-146.31;89.46
2036;BME280;23642;42.658;23.350;2023-11-19T23:50:43;50203.44;;;-146.31;89.50
2036;BME280;23642;42.658;23.350;2023-11-19T23:53:46;50234.38;;;-146.31;89.09
2036;BME280;23642;42.658;23.350;2023-11-19T23:56:16;50257.06;;;-146.31;87.40
2036;BME280;23642;42.658;23.350;2023-11-19T23:59:11;50219.94;;;-146.31;88.26
